Time;durP1;ratioP1;P1;durP2;ratioP2;P2;SDS_P1;SDS_P2;PMS_P1;PMS_P2;Temp;Humidity;BMP_temperature;BMP_pressure;BME280_temperature;BME280_humidity;BME280_pressure;Samples;Min_cycle;Max_cycle;Signal;HPM_P1;HPM_P2
2023/01/01 00:00:17;;;;;;;28.55;13.30;;;;;;;;;;5035583;28;20208;-62
2023/01/01 00:03:04;;;;;;;21.80;11.77;;;;;;;;;;5034646;28;20331;-62
2023/01/01 00:05:31;;;;;;;26.50;13.27;;;;;;;;;;5034962;28;20208;-61
2023/01/01 00:07:58;;;;;;;31.35;16.95;;;;;;;;;;5035343;28;20212;-62
2023/01/01 00:10:32;;;;;;;20.90;11.68;;;;;;;;;;5035087;28;20622;-62
2023/01/01 00:12:59;;;;;;;20.95;11.75;;;;;;;;;;5034998;28;20208;-63
2023/01/01 00:15:27;;;;;;;20.20;12.02;;;;;;;;;;5035287;28;20196;-61
2023/01/01 00:17:54;;;;;;;19.85;11.40;;;;;;;;;;5035122;28;20231;-62
2023/01/01 00:20:22;;;;;;;24.73;13.35;;;;;;;;;;5035403;28;20205;-61
2023/01/01 00:22:49;;;;;;;23.83;12.48;;;;;;;;;;5035037;28;20201;-62
2023/01/01 00:25:22;;;;;;;26.52;13.68;;;;;;;;;;5035247;28;20204;-62
2023/01/01 00:27:49;;;;;;;22.80;13.65;;;;;;;;;;5034832;28;20299;-63
2023/01/01 00:30:17;;;;;;;28.30;13.07;;;;;;;;;;5034783;28;20250;-62
2023/01/01 00:32:44;;;;;;;17.80;10.63;;;;;;;;;;5034536;28;20197;-62
2023/01/01 00:35:24;;;;;;;20.90;11.90;;;;;;;;;;5034951;28;20189;-62
2023/01/01 00:37:52;;;;;;;21.33;11.80;;;;;;;;;;5034315;28;20239;-62
2023/01/01 00:40:19;;;;;;;22.30;12.05;;;;;;;;;;5033837;28;20197;-63
2023/01/01 00:42:47;;;;;;;19.13;10.57;;;;;;;;;;5034592;28;20219;-62
2023/01/01 00:45:14;;;;;;;18.75;11.13;;;;;;;;;;5034637;28;20200;-62
2023/01/01 00:47:47;;;;;;;18.77;10.70;;;;;;;;;;5028268;28;20233;-62
2023/01/01 00:50:15;;;;;;;23.92;11.98;;;;;;;;;;5030184;28;20205;-62
2023/01/01 00:52:42;;;;;;;18.33;10.20;;;;;;;;;;5034450;28;20633;-62
2023/01/01 00:55:10;;;;;;;24.35;11.32;;;;;;;;;;5034376;28;20205;-62
2023/01/01 00:57:37;;;;;;;19.92;10.77;;;;;;;;;;5034478;28;20229;-61
2023/01/01 01:00:05;;;;;;;19.58;11.60;;;;;;;;;;5034498;28;20208;-62
2023/01/01 01:02:32;;;;;;;22.15;11.85;;;;;;;;;;5034339;28;20243;-62
2023/01/01 01:05:02;;;;;;;26.30;14.10;;;;;;;;;;5034256;28;20216;-61
2023/01/01 01:07:34;;;;;;;21.92;11.43;;;;;;;;;;5034157;28;20208;-61
2023/01/01 01:10:02;;;;;;;22.48;12.05;;;;;;;;;;5033545;28;20193;-61
2023/01/01 01:12:28;;;;;;;22.83;11.80;;;;;;;;;;5034251;28;20201;-62
2023/01/01 01:14:56;;;;;;;23.33;12.52;;;;;;;;;;5033656;28;20212;-61
2023/01/01 01:17:23;;;;;;;19.88;11.23;;;;;;;;;;5033925;28;20200;-61
2023/01/01 01:19:50;;;;;;;24.13;11.98;;;;;;;;;;5034094;28;20219;-62
2023/01/01 01:22:17;;;;;;;19.75;11.40;;;;;;;;;;5034079;28;20208;-62
2023/01/01 01:24:52;;;;;;;19.60;10.73;;;;;;;;;;5033931;28;20204;-62
2023/01/01 01:27:19;;;;;;;16.75;10.32;;;;;;;;;;5033859;28;20576;-62
2023/01/01 01:29:46;;;;;;;19.15;10.68;;;;;;;;;;5033919;28;20661;-61
2023/01/01 01:32:13;;;;;;;27.60;15.75;;;;;;;;;;5033860;28;20208;-61
2023/01/01 01:34:40;;;;;;;20.83;11.65;;;;;;;;;;5033873;28;20282;-62
2023/01/01 01:37:07;;;;;;;18.27;10.20;;;;;;;;;;5034039;28;20216;-61
2023/01/01 01:39:35;;;;;;;20.42;10.82;;;;;;;;;;5033557;28;20247;-61
2023/01/01 01:42:02;;;;;;;19.60;10.95;;;;;;;;;;5033695;28;20225;-61
2023/01/01 01:44:47;;;;;;;17.88;10.15;;;;;;;;;;5033845;28;20201;-61
2023/01/01 01:47:34;;;;;;;18.00;10.25;;;;;;;;;;5033819;28;20258;-61
2023/01/01 01:50:13;;;;;;;15.95;9.10;;;;;;;;;;5032819;28;20579;-62
2023/01/01 01:52:47;;;;;;;20.23;11.00;;;;;;;;;;5034018;28;20223;-61
2023/01/01 01:55:14;;;;;;;18.27;9.93;;;;;;;;;;5032969;28;20200;-61
2023/01/01 01:57:41;;;;;;;22.55;10.32;;;;;;;;;;5032706;28;20290;-61
2023/01/01 02:00:09;;;;;;;22.02;10.55;;;;;;;;;;5033719;28;20211;-61
2023/01/01 02:02:45;;;;;;;22.35;10.40;;;;;;;;;;5034020;28;20209;-61
2023/01/01 02:05:13;;;;;;;16.40;8.68;;;;;;;;;;5032807;28;20240;-62
2023/01/01 02:07:40;;;;;;;15.85;9.15;;;;;;;;;;5033654;28;20248;-62
2023/01/01 02:10:08;;;;;;;48.42;23.55;;;;;;;;;;5032954;28;20231;-61
2023/01/01 02:12:35;;;;;;;23.23;13.60;;;;;;;;;;5033542;28;20204;-61
2023/01/01 02:15:03;;;;;;;18.77;10.23;;;;;;;;;;5033684;28;20283;-61
2023/01/01 02:17:32;;;;;;;20.55;10.85;;;;;;;;;;5033548;28;20291;-61
2023/01/01 02:20:21;;;;;;;17.40;9.25;;;;;;;;;;5033770;28;20196;-62
2023/01/01 02:23:19;;;;;;;16.73;9.40;;;;;;;;;;5033472;28;20205;-63
2023/01/01 02:26:23;;;;;;;15.48;8.40;;;;;;;;;;5033639;28;20208;-61
2023/01/01 02:29:01;;;;;;;21.67;10.10;;;;;;;;;;5037109;28;20255;-61
2023/01/01 02:31:37;;;;;;;23.95;11.65;;;;;;;;;;5036104;28;20204;-61
2023/01/01 02:34:07;;;;;;;18.88;10.48;;;;;;;;;;5036320;28;20208;-61
2023/01/01 02:36:39;;;;;;;18.13;9.63;;;;;;;;;;5036233;28;20216;-61
2023/01/01 02:39:06;;;;;;;18.52;9.50;;;;;;;;;;5037288;28;20248;-63
2023/01/01 02:41:38;;;;;;;16.65;8.68;;;;;;;;;;5035876;28;20200;-61
2023/01/01 02:44:06;;;;;;;16.88;8.93;;;;;;;;;;5036471;28;20205;-62
2023/01/01 02:46:34;;;;;;;16.63;8.75;;;;;;;;;;5036994;28;20212;-61
2023/01/01 02:49:02;;;;;;;16.50;8.90;;;;;;;;;;5035770;28;20205;-62
2023/01/01 02:51:56;;;;;;;14.70;8.23;;;;;;;;;;5037021;28;20188;-62
2023/01/01 02:54:52;;;;;;;22.45;10.75;;;;;;;;;;5036779;28;20204;-62
2023/01/01 02:57:38;;;;;;;17.05;8.95;;;;;;;;;;5035851;28;20209;-62
2023/01/01 03:00:26;;;;;;;19.33;9.07;;;;;;;;;;5036667;28;20243;-61
2023/01/01 03:03:00;;;;;;;17.40;8.50;;;;;;;;;;5035886;28;20275;-61
2023/01/01 03:05:33;;;;;;;15.60;8.75;;;;;;;;;;5036744;28;20224;-62
2023/01/01 03:08:10;;;;;;;15.27;8.60;;;;;;;;;;5035646;28;20212;-61
2023/01/01 03:10:46;;;;;;;19.08;8.63;;;;;;;;;;5036655;28;20184;-61
2023/01/01 03:13:16;;;;;;;29.38;14.20;;;;;;;;;;5035776;28;20200;-61
2023/01/01 03:16:08;;;;;;;17.05;9.35;;;;;;;;;;5036183;28;20649;-61
2023/01/01 03:18:44;;;;;;;54.00;26.60;;;;;;;;;;5036493;28;20225;-61
2023/01/01 03:21:13;;;;;;;30.25;15.45;;;;;;;;;;5035288;28;20236;-61
2023/01/01 03:23:45;;;;;;;16.25;9.20;;;;;;;;;;5035154;28;20200;-62
2023/01/01 03:26:16;;;;;;;14.25;7.75;;;;;;;;;;5035345;28;20228;-61
2023/01/01 03:28:49;;;;;;;19.83;8.95;;;;;;;;;;5036255;28;20294;-61
2023/01/01 03:31:18;;;;;;;16.58;8.38;;;;;;;;;;5035630;28;20258;-62
2023/01/01 03:33:50;;;;;;;18.52;8.20;;;;;;;;;;5035867;28;20205;-62
2023/01/01 03:36:34;;;;;;;13.98;8.55;;;;;;;;;;5035064;28;20212;-61
2023/01/01 03:39:07;;;;;;;15.40;8.52;;;;;;;;;;5034612;28;20244;-62
2023/01/01 03:41:43;;;;;;;16.08;9.32;;;;;;;;;;5035886;28;20201;-61
2023/01/01 03:44:13;;;;;;;15.95;8.25;;;;;;;;;;5035101;28;20235;-62
2023/01/01 03:46:40;;;;;;;17.15;8.30;;;;;;;;;;5034726;28;20572;-62
2023/01/01 03:49:09;;;;;;;18.38;8.18;;;;;;;;;;5035970;28;20196;-62
2023/01/01 03:51:57;;;;;;;13.25;7.28;;;;;;;;;;5035514;28;20571;-62
2023/01/01 03:55:09;;;;;;;15.80;8.30;;;;;;;;;;5035511;28;20608;-61
2023/01/01 03:57:50;;;;;;;15.13;7.10;;;;;;;;;;5033407;28;20207;-62
2023/01/01 04:00:19;;;;;;;29.85;13.10;;;;;;;;;;5034546;28;20647;-61
2023/01/01 04:02:56;;;;;;;20.10;10.57;;;;;;;;;;5035569;28;20212;-62
2023/01/01 04:05:24;;;;;;;13.65;7.60;;;;;;;;;;5035834;28;20239;-61
2023/01/01 04:07:52;;;;;;;16.77;8.30;;;;;;;;;;5034529;28;20224;-61
2023/01/01 04:10:20;;;;;;;16.10;7.10;;;;;;;;;;5034421;28;20216;-62
2023/01/01 04:12:50;;;;;;;13.85;7.10;;;;;;;;;;5034366;28;20245;-62
2023/01/01 04:15:20;;;;;;;16.50;7.35;;;;;;;;;;5035384;28;20570;-62
2023/01/01 04:17:47;;;;;;;13.73;7.60;;;;;;;;;;5034322;28;20200;-62
2023/01/01 04:20:15;;;;;;;23.23;12.18;;;;;;;;;;5035120;28;20224;-62
2023/01/01 04:22:42;;;;;;;17.75;8.45;;;;;;;;;;5035107;28;20290;-62
2023/01/01 04:25:10;;;;;;;11.65;6.97;;;;;;;;;;5035011;28;20200;-62
2023/01/01 04:27:38;;;;;;;15.15;7.28;;;;;;;;;;5034888;28;20205;-62
2023/01/01 04:30:07;;;;;;;65.28;28.95;;;;;;;;;;5034788;28;20209;-62
2023/01/01 04:32:36;;;;;;;26.83;16.33;;;;;;;;;;5035144;28;20586;-62
2023/01/01 04:35:04;;;;;;;13.95;7.68;;;;;;;;;;5034968;28;20208;-61
2023/01/01 04:37:34;;;;;;;14.07;7.22;;;;;;;;;;5034637;28;20197;-62
2023/01/01 04:40:02;;;;;;;16.52;7.70;;;;;;;;;;5034559;28;20282;-62
2023/01/01 04:42:29;;;;;;;14.30;7.32;;;;;;;;;;5034544;28;20200;-62
2023/01/01 04:44:57;;;;;;;15.70;8.20;;;;;;;;;;5034767;28;20275;-63
2023/01/01 04:47:25;;;;;;;14.38;7.88;;;;;;;;;;5034630;28;20270;-61
2023/01/01 04:49:53;;;;;;;11.80;6.32;;;;;;;;;;5034403;28;20216;-62
2023/01/01 04:52:20;;;;;;;26.13;13.73;;;;;;;;;;5034926;28;20618;-62
2023/01/01 04:54:48;;;;;;;16.98;8.77;;;;;;;;;;5034466;28;20270;-62
2023/01/01 04:57:15;;;;;;;13.27;7.50;;;;;;;;;;5034262;28;20720;-62
2023/01/01 04:59:42;;;;;;;13.10;7.18;;;;;;;;;;5034538;28;20228;-62
2023/01/01 05:02:09;;;;;;;11.80;7.18;;;;;;;;;;5034527;28;20287;-62
2023/01/01 05:04:37;;;;;;;9.77;6.13;;;;;;;;;;5034222;28;20591;-62
2023/01/01 05:07:04;;;;;;;12.75;7.47;;;;;;;;;;5034175;28;20212;-62
2023/01/01 05:09:31;;;;;;;12.48;7.22;;;;;;;;;;5034094;28;20718;-61
2023/01/01 05:11:58;;;;;;;22.77;11.15;;;;;;;;;;5034140;28;20259;-61
2023/01/01 05:14:25;;;;;;;23.95;10.20;;;;;;;;;;5034645;28;20223;-62
2023/01/01 05:16:52;;;;;;;13.95;7.65;;;;;;;;;;5034050;28;20207;-62
2023/01/01 05:19:20;;;;;;;12.57;6.97;;;;;;;;;;5034042;28;20282;-62
2023/01/01 05:21:47;;;;;;;15.02;7.70;;;;;;;;;;5034492;28;20587;-62
2023/01/01 05:24:14;;;;;;;15.35;7.93;;;;;;;;;;5033987;28;20208;-62
2023/01/01 05:26:43;;;;;;;13.95;7.07;;;;;;;;;;5028061;28;20228;-62
2023/01/01 05:29:10;;;;;;;13.85;7.88;;;;;;;;;;5018732;28;20654;-62
2023/01/01 05:31:43;;;;;;;14.48;7.85;;;;;;;;;;5019070;28;20189;-62
2023/01/01 05:34:10;;;;;;;17.98;8.20;;;;;;;;;;5034121;28;20611;-62
2023/01/01 05:36:37;;;;;;;13.38;7.60;;;;;;;;;;5034047;28;20564;-62
2023/01/01 05:39:07;;;;;;;13.50;7.93;;;;;;;;;;5014218;28;20244;-62
2023/01/01 05:41:37;;;;;;;13.23;7.50;;;;;;;;;;5014215;28;20205;-62
2023/01/01 05:44:06;;;;;;;13.45;7.03;;;;;;;;;;5014347;28;20189;-62
2023/01/01 05:46:33;;;;;;;11.98;6.90;;;;;;;;;;5014175;28;20215;-61
2023/01/01 05:49:00;;;;;;;14.23;7.47;;;;;;;;;;5016982;28;20239;-61
2023/01/01 05:51:28;;;;;;;87.78;37.00;;;;;;;;;;5033674;28;20303;-61
2023/01/01 05:53:57;;;;;;;23.33;13.65;;;;;;;;;;5033964;28;20270;-61
2023/01/01 05:56:24;;;;;;;12.50;7.35;;;;;;;;;;5034040;28;20212;-61
2023/01/01 05:58:52;;;;;;;11.82;7.07;;;;;;;;;;5033958;28;20688;-62
2023/01/01 06:01:23;;;;;;;12.18;6.72;;;;;;;;;;5035961;28;20201;-61
2023/01/01 06:03:52;;;;;;;15.73;7.70;;;;;;;;;;5037403;28;20234;-62
2023/01/01 06:06:24;;;;;;;11.02;6.68;;;;;;;;;;5037473;28;20227;-62
2023/01/01 06:08:56;;;;;;;11.82;7.28;;;;;;;;;;5035173;28;20208;-62
2023/01/01 06:11:23;;;;;;;13.88;7.10;;;;;;;;;;5033478;28;20224;-61
2023/01/01 06:13:52;;;;;;;26.23;13.45;;;;;;;;;;5036609;28;20258;-62
2023/01/01 06:16:20;;;;;;;11.73;6.60;;;;;;;;;;5036823;28;20599;-62
2023/01/01 06:18:48;;;;;;;12.57;6.78;;;;;;;;;;5036554;28;20267;-63
2023/01/01 06:21:17;;;;;;;14.18;7.18;;;;;;;;;;5028018;28;20214;-62
2023/01/01 06:23:44;;;;;;;17.27;8.68;;;;;;;;;;5028232;28;20283;-62
2023/01/01 06:26:20;;;;;;;13.95;7.65;;;;;;;;;;5016448;28;20225;-61
2023/01/01 06:28:48;;;;;;;15.02;7.80;;;;;;;;;;5016841;28;20613;-62
2023/01/01 06:31:18;;;;;;;12.48;6.47;;;;;;;;;;5016629;28;20292;-61
2023/01/01 06:33:46;;;;;;;17.90;9.10;;;;;;;;;;5017061;28;20221;-61
2023/01/01 06:36:14;;;;;;;15.00;8.10;;;;;;;;;;5016274;28;20581;-61
2023/01/01 06:38:44;;;;;;;14.90;7.75;;;;;;;;;;5031091;28;20552;-63
2023/01/01 06:41:14;;;;;;;11.13;6.60;;;;;;;;;;5036856;28;20213;-62
2023/01/01 06:43:41;;;;;;;15.38;7.03;;;;;;;;;;5036869;28;20236;-62
2023/01/01 06:46:14;;;;;;;12.80;6.63;;;;;;;;;;5030011;28;20339;-64
2023/01/01 06:48:42;;;;;;;14.10;7.57;;;;;;;;;;5034897;28;20586;-62
2023/01/01 06:51:15;;;;;;;11.90;6.72;;;;;;;;;;5035741;28;20685;-62
2023/01/01 06:53:43;;;;;;;20.27;9.60;;;;;;;;;;5035959;28;20316;-62
2023/01/01 06:56:10;;;;;;;13.70;7.75;;;;;;;;;;5035708;28;20713;-62
2023/01/01 06:58:38;;;;;;;13.30;7.97;;;;;;;;;;5035747;28;20233;-60
2023/01/01 07:01:09;;;;;;;15.63;7.07;;;;;;;;;;5035726;28;20229;-61
2023/01/01 07:03:37;;;;;;;10.10;5.88;;;;;;;;;;5035720;28;20221;-62
2023/01/01 07:06:06;;;;;;;13.60;7.13;;;;;;;;;;5035873;28;20244;-61
2023/01/01 07:08:34;;;;;;;15.10;7.85;;;;;;;;;;5036085;28;20275;-61
2023/01/01 07:11:01;;;;;;;11.35;6.78;;;;;;;;;;5035790;28;20709;-62
2023/01/01 07:13:29;;;;;;;46.42;19.83;;;;;;;;;;5035382;28;20232;-61
2023/01/01 07:15:56;;;;;;;17.88;8.85;;;;;;;;;;5035742;28;20282;-60
2023/01/01 07:18:24;;;;;;;45.40;20.70;;;;;;;;;;5035583;28;20247;-61
2023/01/01 07:20:56;;;;;;;32.00;17.17;;;;;;;;;;5035526;28;20331;-62
2023/01/01 07:23:24;;;;;;;14.07;7.80;;;;;;;;;;5035829;28;20252;-61
2023/01/01 07:25:52;;;;;;;11.68;7.63;;;;;;;;;;5035549;28;20228;-62
2023/01/01 07:28:21;;;;;;;17.50;8.88;;;;;;;;;;5035523;28;20228;-62
2023/01/01 07:30:48;;;;;;;32.00;15.10;;;;;;;;;;5034907;28;20220;-60
2023/01/01 07:33:20;;;;;;;26.80;13.38;;;;;;;;;;5035354;28;20216;-62
2023/01/01 07:35:48;;;;;;;68.38;29.42;;;;;;;;;;5035606;28;20255;-60
2023/01/01 07:38:15;;;;;;;18.40;11.35;;;;;;;;;;5035029;28;20253;-61
2023/01/01 07:40:42;;;;;;;45.00;21.45;;;;;;;;;;5035520;28;20232;-61
2023/01/01 07:43:11;;;;;;;18.30;10.35;;;;;;;;;;5035195;28;20736;-62
2023/01/01 07:45:39;;;;;;;12.95;8.23;;;;;;;;;;5034760;28;20279;-61
2023/01/01 07:48:08;;;;;;;14.15;9.02;;;;;;;;;;5034130;28;20271;-60
2023/01/01 07:50:37;;;;;;;20.00;10.68;;;;;;;;;;5035220;28;20221;-60
2023/01/01 07:53:04;;;;;;;11.98;6.60;;;;;;;;;;5035163;28;20224;-59
2023/01/01 07:55:33;;;;;;;12.05;7.30;;;;;;;;;;5034849;28;20294;-60
2023/01/01 07:58:00;;;;;;;11.25;7.63;;;;;;;;;;5025800;28;20558;-61
2023/01/01 08:00:28;;;;;;;15.68;8.25;;;;;;;;;;5014749;28;20303;-61
2023/01/01 08:02:55;;;;;;;16.27;8.25;;;;;;;;;;5014874;28;20571;-62
2023/01/01 08:05:23;;;;;;;14.30;8.32;;;;;;;;;;5014169;28;20272;-60
2023/01/01 08:07:54;;;;;;;27.80;17.83;;;;;;;;;;5028266;28;20225;-67
2023/01/01 08:10:21;;;;;;;12.27;7.43;;;;;;;;;;5033257;28;20331;-65
2023/01/01 08:12:49;;;;;;;9.88;6.28;;;;;;;;;;5033526;28;20552;-64
2023/01/01 08:15:16;;;;;;;10.07;6.57;;;;;;;;;;5034112;28;20224;-61
2023/01/01 08:17:43;;;;;;;11.95;6.13;;;;;;;;;;5032897;28;20216;-62
2023/01/01 08:20:13;;;;;;;12.93;6.70;;;;;;;;;;5032957;28;20240;-59
2023/01/01 08:22:41;;;;;;;12.93;7.30;;;;;;;;;;5031506;28;20759;-63
2023/01/01 08:25:08;;;;;;;17.52;6.63;;;;;;;;;;5032137;28;20664;-64
2023/01/01 08:27:36;;;;;;;25.85;13.98;;;;;;;;;;5032627;28;20225;-63
2023/01/01 08:30:04;;;;;;;11.27;7.03;;;;;;;;;;5031909;28;20296;-64
2023/01/01 08:32:31;;;;;;;14.90;8.43;;;;;;;;;;5031841;28;20674;-62
2023/01/01 08:34:58;;;;;;;15.90;6.95;;;;;;;;;;5032402;28;20606;-64
2023/01/01 08:37:26;;;;;;;13.50;6.85;;;;;;;;;;5033623;28;20224;-62
2023/01/01 08:39:53;;;;;;;10.40;6.05;;;;;;;;;;5033224;28;20247;-64
2023/01/01 08:42:20;;;;;;;15.15;8.68;;;;;;;;;;5027730;28;20708;-63
2023/01/01 08:44:47;;;;;;;13.95;7.22;;;;;;;;;;5018617;28;20228;-63
2023/01/01 08:47:17;;;;;;;15.90;8.95;;;;;;;;;;5019485;28;20228;-61
2023/01/01 08:49:44;;;;;;;12.57;7.15;;;;;;;;;;5033611;28;20240;-61
2023/01/01 08:52:12;;;;;;;10.95;7.00;;;;;;;;;;5032336;28;20228;-61
2023/01/01 08:54:39;;;;;;;14.27;6.75;;;;;;;;;;5032334;28;20231;-61
2023/01/01 08:57:06;;;;;;;12.43;7.40;;;;;;;;;;5033418;28;20243;-61
2023/01/01 08:59:34;;;;;;;15.15;6.72;;;;;;;;;;5032455;28;20232;-61
2023/01/01 09:02:01;;;;;;;9.45;6.10;;;;;;;;;;5032341;28;20570;-61
2023/01/01 09:04:29;;;;;;;15.15;7.80;;;;;;;;;;5031911;28;20217;-61
2023/01/01 09:06:56;;;;;;;19.13;9.18;;;;;;;;;;5033603;28;20286;-62
2023/01/01 09:09:23;;;;;;;21.92;10.35;;;;;;;;;;5033307;28;20220;-63
2023/01/01 09:12:05;;;;;;;51.13;25.13;;;;;;;;;;5032594;28;20235;-61
2023/01/01 09:14:32;;;;;;;41.63;21.45;;;;;;;;;;5031813;28;20223;-62
2023/01/01 09:17:00;;;;;;;16.50;8.55;;;;;;;;;;5031987;28;20225;-68
2023/01/01 09:19:27;;;;;;;13.70;6.82;;;;;;;;;;5031125;28;20318;-69
2023/01/01 09:21:55;;;;;;;26.13;6.65;;;;;;;;;;5032876;28;20290;-65
2023/01/01 09:24:22;;;;;;;13.35;6.13;;;;;;;;;;5031439;28;20932;-64
2023/01/01 09:26:49;;;;;;;15.25;6.75;;;;;;;;;;5031820;28;20224;-59
2023/01/01 09:29:20;;;;;;;11.38;6.32;;;;;;;;;;5031779;28;20251;-62
2023/01/01 09:31:48;;;;;;;11.98;5.65;;;;;;;;;;5031245;28;20224;-61
2023/01/01 09:34:16;;;;;;;27.98;11.07;;;;;;;;;;5023865;28;20224;-60
2023/01/01 09:36:45;;;;;;;15.05;7.90;;;;;;;;;;5028754;28;20223;-60
2023/01/01 09:39:14;;;;;;;10.32;5.65;;;;;;;;;;5029048;28;20236;-62
2023/01/01 09:41:53;;;;;;;13.10;6.00;;;;;;;;;;5026850;28;20228;-63
2023/01/01 09:44:35;;;;;;;10.82;6.45;;;;;;;;;;5022989;28;20312;-58
2023/01/01 09:47:03;;;;;;;10.95;5.72;;;;;;;;;;5027974;28;20407;-63
2023/01/01 09:49:37;;;;;;;13.20;5.95;;;;;;;;;;5018615;28;20290;-62
2023/01/01 09:52:04;;;;;;;11.30;5.72;;;;;;;;;;5038572;28;20224;-62
2023/01/01 09:54:50;;;;;;;22.65;10.93;;;;;;;;;;5039077;28;20233;-59
2023/01/01 09:57:18;;;;;;;22.42;9.60;;;;;;;;;;5038462;28;20227;-59
2023/01/01 09:59:46;;;;;;;9.95;5.97;;;;;;;;;;5037435;28;20220;-56
2023/01/01 10:02:24;;;;;;;10.15;5.90;;;;;;;;;;5038782;28;20224;-59
2023/01/01 10:05:13;;;;;;;12.20;5.65;;;;;;;;;;5039554;28;20586;-62
2023/01/01 10:07:45;;;;;;;12.30;5.25;;;;;;;;;;5038736;28;20233;-62
2023/01/01 10:11:00;;;;;;;10.57;5.22;;;;;;;;;;5037786;28;20252;-60
2023/01/01 10:13:39;;;;;;;9.38;4.70;;;;;;;;;;5036505;28;20549;-61
2023/01/01 10:16:17;;;;;;;12.93;5.93;;;;;;;;;;5036880;28;20220;-61
2023/01/01 10:18:54;;;;;;;35.38;17.27;;;;;;;;;;5038244;28;20707;-58
2023/01/01 10:21:31;;;;;;;82.20;41.60;;;;;;;;;;5038227;28;20681;-59
2023/01/01 10:24:03;;;;;;;14.85;7.00;;;;;;;;;;5038116;28;20216;-59
2023/01/01 10:26:32;;;;;;;12.65;5.95;;;;;;;;;;5035709;28;20232;-58
2023/01/01 10:29:11;;;;;;;9.98;5.07;;;;;;;;;;5017763;28;20244;-61
2023/01/01 10:31:41;;;;;;;10.90;5.75;;;;;;;;;;5017993;28;20641;-61
2023/01/01 10:34:14;;;;;;;10.65;5.07;;;;;;;;;;5033109;28;20212;-65
2023/01/01 10:36:42;;;;;;;11.18;5.68;;;;;;;;;;5039156;28;20232;-62
2023/01/01 10:39:16;;;;;;;9.13;5.20;;;;;;;;;;5038003;28;20240;-62
2023/01/01 10:41:44;;;;;;;44.88;19.27;;;;;;;;;;5038038;28;20235;-61
2023/01/01 10:44:12;;;;;;;11.63;6.38;;;;;;;;;;5037134;28;20239;-60
2023/01/01 10:46:49;;;;;;;14.98;6.00;;;;;;;;;;5037898;28;20249;-60
2023/01/01 10:49:16;;;;;;;14.07;6.30;;;;;;;;;;5034216;28;20221;-55
2023/01/01 10:51:49;;;;;;;12.40;7.30;;;;;;;;;;5034831;28;20244;-58
2023/01/01 10:54:25;;;;;;;10.88;5.15;;;;;;;;;;5034705;28;20708;-61
2023/01/01 10:56:57;;;;;;;10.38;5.22;;;;;;;;;;5036194;28;20236;-60
2023/01/01 10:59:44;;;;;;;13.07;5.45;;;;;;;;;;5034067;28;20225;-63
2023/01/01 11:02:25;;;;;;;21.63;10.02;;;;;;;;;;5035526;28;20225;-61
2023/01/01 11:05:17;;;;;;;13.00;6.03;;;;;;;;;;5034731;28;20669;-61
2023/01/01 11:07:48;;;;;;;10.00;4.72;;;;;;;;;;5034915;28;20248;-62
2023/01/01 11:10:19;;;;;;;11.10;4.93;;;;;;;;;;5034266;28;20237;-61
2023/01/01 11:12:46;;;;;;;13.27;5.18;;;;;;;;;;5033903;28;20303;-61
2023/01/01 11:15:39;;;;;;;15.15;5.57;;;;;;;;;;5033316;28;20696;-62
2023/01/01 11:18:12;;;;;;;10.20;4.90;;;;;;;;;;5034054;28;20681;-60
2023/01/01 11:20:41;;;;;;;10.48;4.75;;;;;;;;;;5034059;28;20244;-62
2023/01/01 11:23:32;;;;;;;38.97;16.67;;;;;;;;;;5034500;28;20224;-62
2023/01/01 11:26:23;;;;;;;14.82;7.32;;;;;;;;;;5035295;28;20972;-61
2023/01/01 11:29:26;;;;;;;10.63;5.10;;;;;;;;;;5035096;28;20279;-59
2023/01/01 11:31:57;;;;;;;9.38;4.68;;;;;;;;;;5034921;28;20228;-59
2023/01/01 11:34:31;;;;;;;12.07;5.13;;;;;;;;;;5033932;28;20279;-58
2023/01/01 11:37:13;;;;;;;12.90;5.78;;;;;;;;;;5034723;28;20227;-60
2023/01/01 11:39:45;;;;;;;11.55;5.15;;;;;;;;;;5034452;28;20327;-60
2023/01/01 11:42:42;;;;;;;11.68;4.63;;;;;;;;;;5033427;28;20248;-62
2023/01/01 11:45:18;;;;;;;62.20;28.42;;;;;;;;;;5032307;28;20554;-61
2023/01/01 11:47:50;;;;;;;18.38;7.20;;;;;;;;;;5033949;28;20693;-63
2023/01/01 11:50:25;;;;;;;11.50;5.22;;;;;;;;;;5031727;28;20224;-63
2023/01/01 11:52:57;;;;;;;8.18;4.32;;;;;;;;;;5034235;28;20224;-64
2023/01/01 11:55:38;;;;;;;9.07;4.88;;;;;;;;;;5032814;28;20221;-64
2023/01/01 11:58:28;;;;;;;11.40;4.47;;;;;;;;;;5033040;28;20677;-63
2023/01/01 12:01:08;;;;;;;10.55;5.05;;;;;;;;;;5033483;28;20339;-61
2023/01/01 12:03:42;;;;;;;9.63;5.05;;;;;;;;;;5014142;28;20696;-61
2023/01/01 12:06:50;;;;;;;16.00;8.95;;;;;;;;;;5025265;28;20224;-61
2023/01/01 12:09:20;;;;;;;15.07;4.95;;;;;;;;;;5011187;28;20244;-61
2023/01/01 12:12:11;;;;;;;12.68;5.07;;;;;;;;;;5030902;28;20232;-63
2023/01/01 12:14:47;;;;;;;12.32;5.30;;;;;;;;;;5011098;28;20229;-63
2023/01/01 12:17:27;;;;;;;16.10;5.80;;;;;;;;;;5012470;28;20637;-61
2023/01/01 12:19:57;;;;;;;13.75;5.47;;;;;;;;;;5012628;28;20257;-61
2023/01/01 12:22:24;;;;;;;10.32;5.10;;;;;;;;;;4996393;28;20237;-59
2023/01/01 12:24:52;;;;;;;36.60;17.40;;;;;;;;;;4992909;28;20238;-60
2023/01/01 12:27:31;;;;;;;12.52;5.28;;;;;;;;;;4992634;28;20679;-61
2023/01/01 12:30:18;;;;;;;10.85;5.50;;;;;;;;;;5002765;28;20563;-60
2023/01/01 12:32:58;;;;;;;9.00;5.53;;;;;;;;;;4989134;28;20237;-63
2023/01/01 12:35:42;;;;;;;12.35;5.50;;;;;;;;;;5002524;28;20230;-64
2023/01/01 12:38:28;;;;;;;12.95;5.32;;;;;;;;;;5001060;28;20236;-61
2023/01/01 12:40:58;;;;;;;10.38;5.00;;;;;;;;;;5011117;28;20241;-61
2023/01/01 12:43:59;;;;;;;10.88;5.57;;;;;;;;;;5011754;28;20700;-61
2023/01/01 12:46:37;;;;;;;16.45;7.80;;;;;;;;;;4984089;28;20357;-63
2023/01/01 12:49:25;;;;;;;15.57;7.50;;;;;;;;;;4992655;28;20226;-62
2023/01/01 12:52:08;;;;;;;44.17;20.50;;;;;;;;;;5004395;28;20287;-61
2023/01/01 12:54:38;;;;;;;19.60;8.38;;;;;;;;;;5032575;28;20232;-61
2023/01/01 12:57:14;;;;;;;14.38;6.47;;;;;;;;;;5031817;28;20229;-63
2023/01/01 12:59:45;;;;;;;10.25;4.80;;;;;;;;;;5032333;28;20235;-62
2023/01/01 13:02:33;;;;;;;11.90;5.80;;;;;;;;;;5030862;28;20236;-62
2023/01/01 13:05:06;;;;;;;11.05;5.47;;;;;;;;;;5032171;28;20236;-61
2023/01/01 13:07:38;;;;;;;14.00;5.88;;;;;;;;;;5031599;28;20216;-62
2023/01/01 13:10:30;;;;;;;12.27;5.40;;;;;;;;;;5028299;28;20550;-61
2023/01/01 13:12:57;;;;;;;16.20;7.85;;;;;;;;;;5024228;28;20220;-62
2023/01/01 13:15:36;;;;;;;12.27;5.80;;;;;;;;;;5030827;28;20236;-60
2023/01/01 13:18:16;;;;;;;12.40;5.40;;;;;;;;;;5031227;28;20541;-57
2023/01/01 13:20:53;;;;;;;17.95;5.53;;;;;;;;;;5033425;28;20240;-60
2023/01/01 13:23:33;;;;;;;11.48;5.20;;;;;;;;;;5033408;28;20224;-60
2023/01/01 13:26:21;;;;;;;13.75;6.00;;;;;;;;;;5032398;28;20293;-61
2023/01/01 13:28:54;;;;;;;12.07;6.10;;;;;;;;;;5032022;28;20224;-61
2023/01/01 13:31:37;;;;;;;12.68;5.15;;;;;;;;;;5031872;28;20238;-63
2023/01/01 13:34:29;;;;;;;18.73;7.00;;;;;;;;;;5033103;28;20228;-62
2023/01/01 13:37:14;;;;;;;11.38;5.72;;;;;;;;;;5032358;28;20225;-61
2023/01/01 13:39:53;;;;;;;16.77;5.50;;;;;;;;;;5033045;28;20247;-62
2023/01/01 13:42:38;;;;;;;10.32;5.82;;;;;;;;;;5031499;28;20298;-61
2023/01/01 13:45:12;;;;;;;14.07;5.47;;;;;;;;;;5031465;28;20217;-61
2023/01/01 13:48:09;;;;;;;11.38;6.18;;;;;;;;;;5032529;28;20691;-62
2023/01/01 13:50:57;;;;;;;12.63;6.70;;;;;;;;;;5030403;28;20236;-61
2023/01/01 13:53:27;;;;;;;15.52;7.20;;;;;;;;;;5033329;28;20228;-61
2023/01/01 13:56:20;;;;;;;11.75;6.22;;;;;;;;;;5032008;28;20282;-61
2023/01/01 13:58:47;;;;;;;13.25;6.30;;;;;;;;;;5032093;28;20229;-63
2023/01/01 14:01:35;;;;;;;134.15;53.40;;;;;;;;;;5032357;28;20614;-63
2023/01/01 14:04:06;;;;;;;47.90;23.13;;;;;;;;;;5031423;28;20220;-62
2023/01/01 14:06:37;;;;;;;13.98;7.75;;;;;;;;;;5031567;28;20236;-61
2023/01/01 14:09:11;;;;;;;18.42;7.65;;;;;;;;;;5032047;28;20216;-60
2023/01/01 14:11:39;;;;;;;14.88;6.25;;;;;;;;;;5031316;28;20224;-61
2023/01/01 14:14:27;;;;;;;14.65;6.90;;;;;;;;;;5030588;28;20251;-62
2023/01/01 14:16:57;;;;;;;11.93;6.28;;;;;;;;;;5032331;28;20229;-61
2023/01/01 14:19:25;;;;;;;10.77;6.25;;;;;;;;;;5028416;28;20231;-62
2023/01/01 14:21:53;;;;;;;14.18;6.10;;;;;;;;;;5031581;28;20665;-61
2023/01/01 14:24:22;;;;;;;34.78;13.52;;;;;;;;;;5035099;28;20225;-61
2023/01/01 14:26:50;;;;;;;13.43;7.25;;;;;;;;;;5034958;28;20290;-59
2023/01/01 14:29:28;;;;;;;14.15;6.60;;;;;;;;;;5035924;28;20228;-58
2023/01/01 14:32:01;;;;;;;13.05;6.78;;;;;;;;;;5036445;28;20231;-57
2023/01/01 14:34:31;;;;;;;40.10;19.85;;;;;;;;;;5036473;28;20232;-57
2023/01/01 14:37:01;;;;;;;45.03;28.20;;;;;;;;;;5036290;28;20363;-56
2023/01/01 14:39:34;;;;;;;10.75;6.82;;;;;;;;;;5034536;28;20703;-62
2023/01/01 14:42:07;;;;;;;14.48;7.55;;;;;;;;;;5034820;28;20237;-63
2023/01/01 14:44:39;;;;;;;11.93;6.70;;;;;;;;;;5036748;28;20263;-61
2023/01/01 14:47:27;;;;;;;9.00;5.35;;;;;;;;;;5031774;28;20591;-64
2023/01/01 14:50:04;;;;;;;13.50;6.30;;;;;;;;;;5026991;28;20326;-61
2023/01/01 14:52:34;;;;;;;11.82;6.43;;;;;;;;;;5036080;28;20224;-61
2023/01/01 14:55:03;;;;;;;10.55;6.15;;;;;;;;;;5036139;28;20216;-61
2023/01/01 14:57:32;;;;;;;14.70;7.47;;;;;;;;;;5028139;28;20282;-63